Archival Weather

Pemba

Pemba, Mozambique (FQPB)

Report from: Saturday, April 1, 2023 10:00 PM CAT
Current time: Wednesday, April 24, 2024 8:31 PM CAT

Current weather – Weather history – Daily summaries
Weather forecast

Temperature25.0°C (77.0°F)
Dew point23.0°C (73.4°F)
Winds 7 kts (3.6 m/s, 8.1 mph) South (180°)
Visibility6.2 mi. (10 km)
Clouds Ceiling: Broken clouds 0 ft. (0 m)
Few clouds 2,000 ft. (610 m)
Few clouds with cumulonimbus 2,500 ft. (762 m)
Broken clouds 10,000 ft. (3,048 m)
Altimeter29.94 in.Hg (1014 mB)
Relative humidity89 %
Density altitude1,510 ft. (460 m)
Remarks Cumulonimbus clouds observed northwest
Flight conditions Low Instrument Meteorological Conditions
Raw dataFQPB 012000Z 18007KT 9999 FEW020 FEW025CB BKN100 BKN/// 25/23 Q1014 RMK CB TO W/ NW
An error has occurred. This application may no longer respond until reloaded. Reload 🗙